sensor_id;sensor_type;location;lat;lon;timestamp;temperature;humidity
20345;DHT22;10330;48.816;9.278;2023-09-08T00:09:31;18.40;99.90
20345;DHT22;10330;48.816;9.278;2023-09-08T00:11:58;18.30;99.90
20345;DHT22;10330;48.816;9.278;2023-09-08T00:14:25;18.30;99.90
20345;DHT22;10330;48.816;9.278;2023-09-08T00:16:52;18.20;99.90
20345;DHT22;10330;48.816;9.278;2023-09-08T00:19:21;18.20;99.90
20345;DHT22;10330;48.816;9.278;2023-09-08T00:21:47;18.10;99.90
20345;DHT22;10330;48.816;9.278;2023-09-08T00:24:15;18.00;99.90
20345;DHT22;10330;48.816;9.278;2023-09-08T00:26:41;18.00;99.90
20345;DHT22;10330;48.816;9.278;2023-09-08T00:29:08;18.00;99.90
20345;DHT22;10330;48.816;9.278;2023-09-08T00:31:34;18.00;99.90
20345;DHT22;10330;48.816;9.278;2023-09-08T00:34:00;17.90;99.90
20345;DHT22;10330;48.816;9.278;2023-09-08T00:36:27;17.90;99.90
20345;DHT22;10330;48.816;9.278;2023-09-08T00:38:53;17.80;99.90
20345;DHT22;10330;48.816;9.278;2023-09-08T00:41:19;17.80;99.90
20345;DHT22;10330;48.816;9.278;2023-09-08T00:43:46;17.70;99.90
20345;DHT22;10330;48.816;9.278;2023-09-08T00:46:12;17.70;99.90
20345;DHT22;10330;48.816;9.278;2023-09-08T00:48:39;17.70;99.90
20345;DHT22;10330;48.816;9.278;2023-09-08T00:51:08;17.70;99.90
20345;DHT22;10330;48.816;9.278;2023-09-08T00:53:37;17.70;99.90
20345;DHT22;10330;48.816;9.278;2023-09-08T00:56:03;17.60;99.90
20345;DHT22;10330;48.816;9.278;2023-09-08T00:58:33;17.70;99.90
20345;DHT22;10330;48.816;9.278;2023-09-08T05:22:05;15.80;99.90
20345;DHT22;10330;48.816;9.278;2023-09-08T05:24:35;15.80;99.90
20345;DHT22;10330;48.816;9.278;2023-09-08T05:27:01;15.80;99.90
20345;DHT22;10330;48.816;9.278;2023-09-08T05:29:27;15.80;99.90
20345;DHT22;10330;48.816;9.278;2023-09-08T05:31:54;15.90;99.90
20345;DHT22;10330;48.816;9.278;2023-09-08T05:34:21;15.90;99.90
20345;DHT22;10330;48.816;9.278;2023-09-08T05:36:47;15.80;99.90
20345;DHT22;10330;48.816;9.278;2023-09-08T05:39:15;15.90;99.90
20345;DHT22;10330;48.816;9.278;2023-09-08T05:41:41;16.00;99.90
20345;DHT22;10330;48.816;9.278;2023-09-08T05:44:07;16.00;99.90
20345;DHT22;10330;48.816;9.278;2023-09-08T05:46:33;15.90;99.90
20345;DHT22;10330;48.816;9.278;2023-09-08T05:49:00;16.10;99.90
20345;DHT22;10330;48.816;9.278;2023-09-08T05:51:26;16.20;99.90
20345;DHT22;10330;48.816;9.278;2023-09-08T05:53:55;16.20;99.90
20345;DHT22;10330;48.816;9.278;2023-09-08T05:56:24;16.30;99.90
20345;DHT22;10330;48.816;9.278;2023-09-08T05:58:51;16.30;99.90
20345;DHT22;10330;48.816;9.278;2023-09-08T06:01:18;16.30;99.90
20345;DHT22;10330;48.816;9.278;2023-09-08T06:03:45;16.30;99.90
20345;DHT22;10330;48.816;9.278;2023-09-08T06:06:12;16.30;99.90
20345;DHT22;10330;48.816;9.278;2023-09-08T06:08:39;16.40;99.90
20345;DHT22;10330;48.816;9.278;2023-09-08T06:11:05;16.40;99.90
20345;DHT22;10330;48.816;9.278;2023-09-08T06:13:33;16.50;99.90
20345;DHT22;10330;48.816;9.278;2023-09-08T06:15:59;16.40;99.90
20345;DHT22;10330;48.816;9.278;2023-09-08T06:18:28;16.30;99.90
20345;DHT22;10330;48.816;9.278;2023-09-08T06:20:56;16.30;99.90
20345;DHT22;10330;48.816;9.278;2023-09-08T06:23:22;16.40;99.90
20345;DHT22;10330;48.816;9.278;2023-09-08T06:25:50;16.40;99.90
20345;DHT22;10330;48.816;9.278;2023-09-08T06:28:17;16.60;99.90
20345;DHT22;10330;48.816;9.278;2023-09-08T06:30:44;16.70;99.90
20345;DHT22;10330;48.816;9.278;2023-09-08T06:33:10;16.70;99.90
20345;DHT22;10330;48.816;9.278;2023-09-08T06:35:37;16.80;99.90
20345;DHT22;10330;48.816;9.278;2023-09-08T06:38:03;17.00;99.90
20345;DHT22;10330;48.816;9.278;2023-09-08T06:40:30;17.20;99.90
20345;DHT22;10330;48.816;9.278;2023-09-08T06:42:56;17.30;99.90
20345;DHT22;10330;48.816;9.278;2023-09-08T06:45:39;17.40;99.90
20345;DHT22;10330;48.816;9.278;2023-09-08T06:48:06;17.60;99.90
20345;DHT22;10330;48.816;9.278;2023-09-08T06:50:32;17.70;99.90
20345;DHT22;10330;48.816;9.278;2023-09-08T06:52:59;17.70;99.90
20345;DHT22;10330;48.816;9.278;2023-09-08T06:55:26;17.90;99.90
20345;DHT22;10330;48.816;9.278;2023-09-08T06:57:53;18.00;99.90
20345;DHT22;10330;48.816;9.278;2023-09-08T07:00:19;18.10;99.90
20345;DHT22;10330;48.816;9.278;2023-09-08T07:02:47;18.20;99.90
20345;DHT22;10330;48.816;9.278;2023-09-08T07:05:16;18.30;99.90
20345;DHT22;10330;48.816;9.278;2023-09-08T07:07:42;18.30;99.90
20345;DHT22;10330;48.816;9.278;2023-09-08T07:10:09;18.40;99.90
20345;DHT22;10330;48.816;9.278;2023-09-08T07:12:35;18.50;99.90
20345;DHT22;10330;48.816;9.278;2023-09-08T07:15:02;18.60;99.90
20345;DHT22;10330;48.816;9.278;2023-09-08T07:17:31;18.70;99.90
20345;DHT22;10330;48.816;9.278;2023-09-08T07:19:58;18.80;99.90
20345;DHT22;10330;48.816;9.278;2023-09-08T07:22:24;18.90;99.90
20345;DHT22;10330;48.816;9.278;2023-09-08T07:24:50;19.00;99.90
20345;DHT22;10330;48.816;9.278;2023-09-08T07:27:17;19.10;99.90
20345;DHT22;10330;48.816;9.278;2023-09-08T07:29:45;19.20;99.90
20345;DHT22;10330;48.816;9.278;2023-09-08T07:32:14;19.20;99.90
20345;DHT22;10330;48.816;9.278;2023-09-08T07:34:40;19.30;99.90
20345;DHT22;10330;48.816;9.278;2023-09-08T07:37:06;19.40;99.90
20345;DHT22;10330;48.816;9.278;2023-09-08T07:39:32;19.50;99.90
20345;DHT22;10330;48.816;9.278;2023-09-08T07:41:59;19.60;99.90
20345;DHT22;10330;48.816;9.278;2023-09-08T07:44:27;19.70;99.90
20345;DHT22;10330;48.816;9.278;2023-09-08T07:46:53;19.80;99.90
20345;DHT22;10330;48.816;9.278;2023-09-08T07:49:21;19.80;99.90
20345;DHT22;10330;48.816;9.278;2023-09-08T07:51:47;19.90;99.90
20345;DHT22;10330;48.816;9.278;2023-09-08T07:54:13;20.00;99.90
20345;DHT22;10330;48.816;9.278;2023-09-08T07:56:42;20.10;99.90
20345;DHT22;10330;48.816;9.278;2023-09-08T07:59:09;20.10;99.90
20345;DHT22;10330;48.816;9.278;2023-09-08T08:01:35;20.30;99.90
20345;DHT22;10330;48.816;9.278;2023-09-08T08:04:01;20.30;99.90
20345;DHT22;10330;48.816;9.278;2023-09-08T08:06:29;20.40;99.90
20345;DHT22;10330;48.816;9.278;2023-09-08T08:08:56;20.50;99.90
20345;DHT22;10330;48.816;9.278;2023-09-08T08:11:22;20.60;99.90
20345;DHT22;10330;48.816;9.278;2023-09-08T08:13:49;20.60;99.90
20345;DHT22;10330;48.816;9.278;2023-09-08T08:16:15;20.70;99.90
20345;DHT22;10330;48.816;9.278;2023-09-08T08:18:41;20.80;99.90
20345;DHT22;10330;48.816;9.278;2023-09-08T08:21:08;20.90;99.90
20345;DHT22;10330;48.816;9.278;2023-09-08T08:23:35;20.90;99.90
20345;DHT22;10330;48.816;9.278;2023-09-08T08:26:02;21.00;99.90
20345;DHT22;10330;48.816;9.278;2023-09-08T08:28:31;21.10;99.90
20345;DHT22;10330;48.816;9.278;2023-09-08T08:30:57;21.20;99.90
20345;DHT22;10330;48.816;9.278;2023-09-08T08:33:26;21.30;99.90
20345;DHT22;10330;48.816;9.278;2023-09-08T08:35:56;21.30;99.90
20345;DHT22;10330;48.816;9.278;2023-09-08T08:38:25;21.40;99.90
20345;DHT22;10330;48.816;9.278;2023-09-08T08:40:52;21.50;99.90
20345;DHT22;10330;48.816;9.278;2023-09-08T08:43:18;21.60;99.90
20345;DHT22;10330;48.816;9.278;2023-09-08T08:45:46;21.70;99.90
20345;DHT22;10330;48.816;9.278;2023-09-08T08:48:14;21.60;99.90
20345;DHT22;10330;48.816;9.278;2023-09-08T08:50:42;21.70;99.90
20345;DHT22;10330;48.816;9.278;2023-09-08T08:53:09;21.80;99.90
20345;DHT22;10330;48.816;9.278;2023-09-08T08:55:35;21.90;99.90
20345;DHT22;10330;48.816;9.278;2023-09-08T08:58:05;22.00;99.90
20345;DHT22;10330;48.816;9.278;2023-09-08T09:00:37;22.10;99.90
20345;DHT22;10330;48.816;9.278;2023-09-08T09:03:05;22.10;99.90
20345;DHT22;10330;48.816;9.278;2023-09-08T09:05:32;22.20;99.90
20345;DHT22;10330;48.816;9.278;2023-09-08T09:08:00;22.20;99.90
20345;DHT22;10330;48.816;9.278;2023-09-08T09:10:31;22.40;99.90
20345;DHT22;10330;48.816;9.278;2023-09-08T09:12:57;22.50;99.90
20345;DHT22;10330;48.816;9.278;2023-09-08T09:15:31;22.60;99.90
20345;DHT22;10330;48.816;9.278;2023-09-08T09:18:05;22.70;99.90
20345;DHT22;10330;48.816;9.278;2023-09-08T09:20:32;22.70;99.90
20345;DHT22;10330;48.816;9.278;2023-09-08T09:22:58;22.80;99.90
20345;DHT22;10330;48.816;9.278;2023-09-08T09:25:29;22.90;99.90
20345;DHT22;10330;48.816;9.278;2023-09-08T09:27:57;23.00;99.90
20345;DHT22;10330;48.816;9.278;2023-09-08T09:30:24;23.00;99.90
20345;DHT22;10330;48.816;9.278;2023-09-08T09:33:01;23.20;99.90
20345;DHT22;10330;48.816;9.278;2023-09-08T09:35:49;23.30;99.90
20345;DHT22;10330;48.816;9.278;2023-09-08T09:38:19;23.30;99.90
20345;DHT22;10330;48.816;9.278;2023-09-08T09:40:47;23.30;99.90
20345;DHT22;10330;48.816;9.278;2023-09-08T09:43:15;23.20;99.90
20345;DHT22;10330;48.816;9.278;2023-09-08T09:45:42;23.40;99.90
20345;DHT22;10330;48.816;9.278;2023-09-08T09:48:09;23.40;99.90
20345;DHT22;10330;48.816;9.278;2023-09-08T09:50:38;23.60;99.90
20345;DHT22;10330;48.816;9.278;2023-09-08T09:53:11;23.70;99.90
20345;DHT22;10330;48.816;9.278;2023-09-08T09:55:38;23.70;99.90
20345;DHT22;10330;48.816;9.278;2023-09-08T09:58:05;23.80;99.90
20345;DHT22;10330;48.816;9.278;2023-09-08T10:00:32;24.00;99.90
20345;DHT22;10330;48.816;9.278;2023-09-08T10:02:59;24.00;99.90
20345;DHT22;10330;48.816;9.278;2023-09-08T10:05:26;24.10;99.90
20345;DHT22;10330;48.816;9.278;2023-09-08T10:07:53;24.20;99.90
20345;DHT22;10330;48.816;9.278;2023-09-08T10:10:20;24.30;99.90
20345;DHT22;10330;48.816;9.278;2023-09-08T10:12:52;24.30;99.90
20345;DHT22;10330;48.816;9.278;2023-09-08T10:15:22;24.40;99.90
20345;DHT22;10330;48.816;9.278;2023-09-08T10:17:56;24.50;99.90
20345;DHT22;10330;48.816;9.278;2023-09-08T10:20:24;24.60;99.90
20345;DHT22;10330;48.816;9.278;2023-09-08T10:26:12;24.80;99.90
20345;DHT22;10330;48.816;9.278;2023-09-08T10:28:42;24.80;99.90
20345;DHT22;10330;48.816;9.278;2023-09-08T10:31:09;24.90;99.90
20345;DHT22;10330;48.816;9.278;2023-09-08T10:33:37;25.10;99.90
20345;DHT22;10330;48.816;9.278;2023-09-08T10:36:04;25.20;99.90
20345;DHT22;10330;48.816;9.278;2023-09-08T10:38:36;25.20;99.90
20345;DHT22;10330;48.816;9.278;2023-09-08T10:43:44;25.30;99.90
20345;DHT22;10330;48.816;9.278;2023-09-08T10:46:21;25.40;99.90
20345;DHT22;10330;48.816;9.278;2023-09-08T10:48:48;25.70;99.90
20345;DHT22;10330;48.816;9.278;2023-09-08T10:51:15;25.80;99.90
20345;DHT22;10330;48.816;9.278;2023-09-08T10:53:42;25.80;99.90
20345;DHT22;10330;48.816;9.278;2023-09-08T10:56:08;25.90;99.90
20345;DHT22;10330;48.816;9.278;2023-09-08T10:58:36;26.00;99.90
20345;DHT22;10330;48.816;9.278;2023-09-08T11:01:05;26.20;99.90
20345;DHT22;10330;48.816;9.278;2023-09-08T11:06:04;26.60;99.90
20345;DHT22;10330;48.816;9.278;2023-09-08T11:08:32;26.80;99.90
20345;DHT22;10330;48.816;9.278;2023-09-08T11:10:59;27.00;99.90
20345;DHT22;10330;48.816;9.278;2023-09-08T11:13:27;27.00;99.90
20345;DHT22;10330;48.816;9.278;2023-09-08T11:15:55;27.30;99.90
20345;DHT22;10330;48.816;9.278;2023-09-08T11:18:28;27.50;99.90
20345;DHT22;10330;48.816;9.278;2023-09-08T11:20:55;27.80;99.90
20345;DHT22;10330;48.816;9.278;2023-09-08T11:23:22;28.00;99.90
20345;DHT22;10330;48.816;9.278;2023-09-08T11:25:50;28.30;99.90
20345;DHT22;10330;48.816;9.278;2023-09-08T11:28:17;28.60;99.90
20345;DHT22;10330;48.816;9.278;2023-09-08T11:30:47;28.70;99.90
20345;DHT22;10330;48.816;9.278;2023-09-08T11:33:17;29.00;99.90
20345;DHT22;10330;48.816;9.278;2023-09-08T11:35:47;29.50;99.90
20345;DHT22;10330;48.816;9.278;2023-09-08T11:38:14;29.80;99.90
20345;DHT22;10330;48.816;9.278;2023-09-08T11:40:41;30.20;99.90
20345;DHT22;10330;48.816;9.278;2023-09-08T11:43:07;30.20;99.90
20345;DHT22;10330;48.816;9.278;2023-09-08T11:45:37;30.30;99.90
20345;DHT22;10330;48.816;9.278;2023-09-08T11:48:04;30.50;99.90
20345;DHT22;10330;48.816;9.278;2023-09-08T11:50:31;31.20;99.90
20345;DHT22;10330;48.816;9.278;2023-09-08T11:52:57;31.50;99.90
20345;DHT22;10330;48.816;9.278;2023-09-08T11:55:28;31.20;99.90
20345;DHT22;10330;48.816;9.278;2023-09-08T11:57:55;31.30;99.90
20345;DHT22;10330;48.816;9.278;2023-09-08T12:00:27;31.60;99.90
20345;DHT22;10330;48.816;9.278;2023-09-08T12:02:54;31.40;99.90
20345;DHT22;10330;48.816;9.278;2023-09-08T12:05:22;31.60;99.90
20345;DHT22;10330;48.816;9.278;2023-09-08T12:07:50;31.60;99.90
20345;DHT22;10330;48.816;9.278;2023-09-08T12:10:17;31.80;99.90
20345;DHT22;10330;48.816;9.278;2023-09-08T12:12:48;31.90;99.90
20345;DHT22;10330;48.816;9.278;2023-09-08T12:15:30;32.00;99.90
20345;DHT22;10330;48.816;9.278;2023-09-08T12:18:05;32.20;99.90
20345;DHT22;10330;48.816;9.278;2023-09-08T12:20:32;32.20;99.90
20345;DHT22;10330;48.816;9.278;2023-09-08T12:23:03;32.20;99.90
20345;DHT22;10330;48.816;9.278;2023-09-08T12:25:29;32.20;99.90
20345;DHT22;10330;48.816;9.278;2023-09-08T12:28:00;32.30;99.90
20345;DHT22;10330;48.816;9.278;2023-09-08T12:30:27;32.40;99.90
20345;DHT22;10330;48.816;9.278;2023-09-08T12:32:59;32.50;99.90
20345;DHT22;10330;48.816;9.278;2023-09-08T12:35:25;33.00;99.90
20345;DHT22;10330;48.816;9.278;2023-09-08T12:38:02;32.70;99.90
20345;DHT22;10330;48.816;9.278;2023-09-08T12:40:30;32.90;99.90
20345;DHT22;10330;48.816;9.278;2023-09-08T12:42:57;33.20;99.90
20345;DHT22;10330;48.816;9.278;2023-09-08T12:45:26;33.60;99.90
20345;DHT22;10330;48.816;9.278;2023-09-08T12:47:52;33.00;99.90
20345;DHT22;10330;48.816;9.278;2023-09-08T12:50:20;33.20;99.90
20345;DHT22;10330;48.816;9.278;2023-09-08T12:52:47;33.20;99.90
20345;DHT22;10330;48.816;9.278;2023-09-08T12:55:13;33.10;99.90
20345;DHT22;10330;48.816;9.278;2023-09-08T12:57:39;33.10;99.90
20345;DHT22;10330;48.816;9.278;2023-09-08T13:00:06;33.10;99.90
20345;DHT22;10330;48.816;9.278;2023-09-08T13:02:33;33.80;99.90
20345;DHT22;10330;48.816;9.278;2023-09-08T13:05:00;33.30;99.90
20345;DHT22;10330;48.816;9.278;2023-09-08T13:07:26;33.00;99.90
20345;DHT22;10330;48.816;9.278;2023-09-08T13:09:53;33.00;99.90
20345;DHT22;10330;48.816;9.278;2023-09-08T13:12:19;33.10;99.90
20345;DHT22;10330;48.816;9.278;2023-09-08T13:14:45;33.00;99.90
20345;DHT22;10330;48.816;9.278;2023-09-08T13:17:12;33.00;99.90
20345;DHT22;10330;48.816;9.278;2023-09-08T13:19:38;33.20;99.90
20345;DHT22;10330;48.816;9.278;2023-09-08T13:22:05;33.80;99.90
20345;DHT22;10330;48.816;9.278;2023-09-08T13:24:32;33.50;99.90
20345;DHT22;10330;48.816;9.278;2023-09-08T13:27:00;33.40;99.90
20345;DHT22;10330;48.816;9.278;2023-09-08T13:29:26;34.10;99.90
20345;DHT22;10330;48.816;9.278;2023-09-08T13:31:54;33.70;99.90
20345;DHT22;10330;48.816;9.278;2023-09-08T13:34:21;33.70;99.90
20345;DHT22;10330;48.816;9.278;2023-09-08T13:36:48;33.90;99.90
20345;DHT22;10330;48.816;9.278;2023-09-08T13:39:14;33.90;99.90
20345;DHT22;10330;48.816;9.278;2023-09-08T13:44:14;33.80;99.90
20345;DHT22;10330;48.816;9.278;2023-09-08T13:46:40;33.60;99.90
20345;DHT22;10330;48.816;9.278;2023-09-08T13:49:06;33.60;99.90
20345;DHT22;10330;48.816;9.278;2023-09-08T13:51:32;33.70;99.90
20345;DHT22;10330;48.816;9.278;2023-09-08T13:53:59;33.70;99.90
20345;DHT22;10330;48.816;9.278;2023-09-08T13:56:25;33.60;99.90
20345;DHT22;10330;48.816;9.278;2023-09-08T13:58:52;33.60;99.90
20345;DHT22;10330;48.816;9.278;2023-09-08T14:01:18;34.00;99.90
20345;DHT22;10330;48.816;9.278;2023-09-08T14:03:44;33.70;99.90
20345;DHT22;10330;48.816;9.278;2023-09-08T14:06:10;33.90;99.90
20345;DHT22;10330;48.816;9.278;2023-09-08T14:08:36;34.00;99.90
20345;DHT22;10330;48.816;9.278;2023-09-08T14:11:02;34.00;99.90
20345;DHT22;10330;48.816;9.278;2023-09-08T14:13:29;33.70;99.90
20345;DHT22;10330;48.816;9.278;2023-09-08T14:15:55;33.60;99.90
20345;DHT22;10330;48.816;9.278;2023-09-08T14:18:21;33.60;99.90
20345;DHT22;10330;48.816;9.278;2023-09-08T14:20:47;34.20;99.90
20345;DHT22;10330;48.816;9.278;2023-09-08T14:23:13;34.50;99.90
20345;DHT22;10330;48.816;9.278;2023-09-08T14:25:39;34.30;99.90
20345;DHT22;10330;48.816;9.278;2023-09-08T14:28:05;34.20;99.90
20345;DHT22;10330;48.816;9.278;2023-09-08T14:30:32;34.00;99.90
20345;DHT22;10330;48.816;9.278;2023-09-08T14:32:58;33.70;99.90
20345;DHT22;10330;48.816;9.278;2023-09-08T14:35:24;33.80;99.90
20345;DHT22;10330;48.816;9.278;2023-09-08T14:37:50;34.10;99.90
20345;DHT22;10330;48.816;9.278;2023-09-08T14:40:16;34.00;99.60
20345;DHT22;10330;48.816;9.278;2023-09-08T14:42:42;33.80;99.60
20345;DHT22;10330;48.816;9.278;2023-09-08T14:45:09;33.60;99.90
20345;DHT22;10330;48.816;9.278;2023-09-08T14:47:41;33.50;99.90
20345;DHT22;10330;48.816;9.278;2023-09-08T14:50:08;33.50;99.90
20345;DHT22;10330;48.816;9.278;2023-09-08T14:52:34;34.00;99.90
20345;DHT22;10330;48.816;9.278;2023-09-08T14:55:00;33.90;99.90
20345;DHT22;10330;48.816;9.278;2023-09-08T14:57:26;33.60;99.90
20345;DHT22;10330;48.816;9.278;2023-09-08T14:59:53;33.70;99.50
20345;DHT22;10330;48.816;9.278;2023-09-08T15:02:21;33.60;99.90
20345;DHT22;10330;48.816;9.278;2023-09-08T15:04:48;33.60;99.90
20345;DHT22;10330;48.816;9.278;2023-09-08T15:07:15;33.50;99.90
20345;DHT22;10330;48.816;9.278;2023-09-08T15:09:41;33.50;99.90
20345;DHT22;10330;48.816;9.278;2023-09-08T15:12:07;33.60;99.90
20345;DHT22;10330;48.816;9.278;2023-09-08T15:14:34;33.60;99.90
20345;DHT22;10330;48.816;9.278;2023-09-08T15:17:00;33.90;99.90
20345;DHT22;10330;48.816;9.278;2023-09-08T15:19:26;33.80;99.90
20345;DHT22;10330;48.816;9.278;2023-09-08T15:21:52;33.90;99.90
20345;DHT22;10330;48.816;9.278;2023-09-08T15:24:19;33.90;99.80
20345;DHT22;10330;48.816;9.278;2023-09-08T15:26:45;33.90;99.50
20345;DHT22;10330;48.816;9.278;2023-09-08T15:29:12;33.90;99.60
20345;DHT22;10330;48.816;9.278;2023-09-08T15:31:42;33.80;99.10
20345;DHT22;10330;48.816;9.278;2023-09-08T15:34:08;33.70;99.30
20345;DHT22;10330;48.816;9.278;2023-09-08T15:36:36;33.60;99.00
20345;DHT22;10330;48.816;9.278;2023-09-08T15:39:03;33.60;99.50
20345;DHT22;10330;48.816;9.278;2023-09-08T15:41:29;33.60;99.30
20345;DHT22;10330;48.816;9.278;2023-09-08T15:43:56;33.60;99.40
20345;DHT22;10330;48.816;9.278;2023-09-08T15:46:24;33.60;99.40
20345;DHT22;10330;48.816;9.278;2023-09-08T15:48:52;33.60;99.90
20345;DHT22;10330;48.816;9.278;2023-09-08T15:51:18;33.60;99.80
20345;DHT22;10330;48.816;9.278;2023-09-08T15:53:44;33.70;99.60
20345;DHT22;10330;48.816;9.278;2023-09-08T15:56:10;33.70;99.60
20345;DHT22;10330;48.816;9.278;2023-09-08T15:58:37;33.60;99.70
20345;DHT22;10330;48.816;9.278;2023-09-08T16:01:04;33.50;99.20
20345;DHT22;10330;48.816;9.278;2023-09-08T16:03:31;33.50;99.40
20345;DHT22;10330;48.816;9.278;2023-09-08T16:05:57;33.40;99.50
20345;DHT22;10330;48.816;9.278;2023-09-08T16:08:24;33.40;99.70
20345;DHT22;10330;48.816;9.278;2023-09-08T16:10:50;33.20;99.30
20345;DHT22;10330;48.816;9.278;2023-09-08T16:13:16;33.00;99.50
20345;DHT22;10330;48.816;9.278;2023-09-08T16:15:42;32.90;99.20
20345;DHT22;10330;48.816;9.278;2023-09-08T16:18:09;32.90;99.30
20345;DHT22;10330;48.816;9.278;2023-09-08T16:20:37;32.70;99.60
20345;DHT22;10330;48.816;9.278;2023-09-08T16:23:04;32.60;98.60
20345;DHT22;10330;48.816;9.278;2023-09-08T16:25:31;32.60;99.20
20345;DHT22;10330;48.816;9.278;2023-09-08T16:27:57;32.70;98.40
20345;DHT22;10330;48.816;9.278;2023-09-08T16:30:23;32.70;98.20
20345;DHT22;10330;48.816;9.278;2023-09-08T16:32:49;32.40;99.40
20345;DHT22;10330;48.816;9.278;2023-09-08T16:35:15;32.20;99.40
20345;DHT22;10330;48.816;9.278;2023-09-08T16:37:42;32.20;98.90
20345;DHT22;10330;48.816;9.278;2023-09-08T16:40:09;32.00;98.90
20345;DHT22;10330;48.816;9.278;2023-09-08T16:46:24;31.60;98.60
20345;DHT22;10330;48.816;9.278;2023-09-08T16:48:50;31.40;98.70
20345;DHT22;10330;48.816;9.278;2023-09-08T16:51:17;30.90;98.80
20345;DHT22;10330;48.816;9.278;2023-09-08T16:53:49;30.70;99.90
20345;DHT22;10330;48.816;9.278;2023-09-08T16:56:34;30.50;99.90
20345;DHT22;10330;48.816;9.278;2023-09-08T16:59:14;30.40;99.90
20345;DHT22;10330;48.816;9.278;2023-09-08T17:01:40;30.20;99.90
20345;DHT22;10330;48.816;9.278;2023-09-08T17:04:07;30.10;99.90
20345;DHT22;10330;48.816;9.278;2023-09-08T17:06:36;29.90;99.90
20345;DHT22;10330;48.816;9.278;2023-09-08T17:09:03;29.80;99.90
20345;DHT22;10330;48.816;9.278;2023-09-08T17:11:30;29.70;99.90
20345;DHT22;10330;48.816;9.278;2023-09-08T17:14:05;29.60;99.90
20345;DHT22;10330;48.816;9.278;2023-09-08T17:16:32;29.30;99.90
20345;DHT22;10330;48.816;9.278;2023-09-08T17:18:58;29.10;99.90
20345;DHT22;10330;48.816;9.278;2023-09-08T17:21:25;28.90;99.90
20345;DHT22;10330;48.816;9.278;2023-09-08T17:23:51;28.80;99.90
20345;DHT22;10330;48.816;9.278;2023-09-08T17:26:17;28.60;99.90
20345;DHT22;10330;48.816;9.278;2023-09-08T17:31:27;28.50;99.90
20345;DHT22;10330;48.816;9.278;2023-09-08T17:34:02;28.40;99.90
20345;DHT22;10330;48.816;9.278;2023-09-08T17:36:37;28.30;99.90
20345;DHT22;10330;48.816;9.278;2023-09-08T17:39:10;28.20;99.90
20345;DHT22;10330;48.816;9.278;2023-09-08T17:41:36;28.20;99.90
20345;DHT22;10330;48.816;9.278;2023-09-08T17:44:02;28.10;99.90
20345;DHT22;10330;48.816;9.278;2023-09-08T17:46:29;28.00;99.90
20345;DHT22;10330;48.816;9.278;2023-09-08T17:48:56;27.90;99.90
20345;DHT22;10330;48.816;9.278;2023-09-08T17:51:22;27.80;99.90
20345;DHT22;10330;48.816;9.278;2023-09-08T17:53:48;27.70;99.90
20345;DHT22;10330;48.816;9.278;2023-09-08T17:56:15;27.60;99.90
20345;DHT22;10330;48.816;9.278;2023-09-08T17:58:41;27.50;99.90
20345;DHT22;10330;48.816;9.278;2023-09-08T18:01:07;27.50;99.90
20345;DHT22;10330;48.816;9.278;2023-09-08T18:03:34;27.40;99.90
20345;DHT22;10330;48.816;9.278;2023-09-08T18:06:00;27.20;99.90
20345;DHT22;10330;48.816;9.278;2023-09-08T18:08:26;27.10;99.90
20345;DHT22;10330;48.816;9.278;2023-09-08T18:11:01;27.00;99.90
20345;DHT22;10330;48.816;9.278;2023-09-08T18:13:28;26.90;99.90
20345;DHT22;10330;48.816;9.278;2023-09-08T18:16:04;26.80;99.90
20345;DHT22;10330;48.816;9.278;2023-09-08T18:18:45;26.70;99.90
20345;DHT22;10330;48.816;9.278;2023-09-08T20:15:21;23.70;99.90
20345;DHT22;10330;48.816;9.278;2023-09-08T20:18:53;23.60;99.90
20345;DHT22;10330;48.816;9.278;2023-09-08T20:22:18;23.50;99.90
20345;DHT22;10330;48.816;9.278;2023-09-08T20:26:02;23.40;99.90
20345;DHT22;10330;48.816;9.278;2023-09-08T20:29:15;23.40;99.90
20345;DHT22;10330;48.816;9.278;2023-09-08T20:35:48;23.20;99.90
20345;DHT22;10330;48.816;9.278;2023-09-08T20:38:14;23.20;99.90
20345;DHT22;10330;48.816;9.278;2023-09-08T20:40:53;23.20;99.90
20345;DHT22;10330;48.816;9.278;2023-09-08T20:43:19;23.10;99.90
20345;DHT22;10330;48.816;9.278;2023-09-08T20:45:53;23.10;99.90
20345;DHT22;10330;48.816;9.278;2023-09-08T20:48:23;23.00;99.90
20345;DHT22;10330;48.816;9.278;2023-09-08T20:51:04;23.00;99.90
20345;DHT22;10330;48.816;9.278;2023-09-08T20:53:34;22.90;99.90
20345;DHT22;10330;48.816;9.278;2023-09-08T20:56:13;22.90;99.90
20345;DHT22;10330;48.816;9.278;2023-09-08T20:58:40;22.90;99.90
20345;DHT22;10330;48.816;9.278;2023-09-08T21:01:10;22.90;99.90
20345;DHT22;10330;48.816;9.278;2023-09-08T21:03:37;22.80;99.90
20345;DHT22;10330;48.816;9.278;2023-09-08T21:06:04;22.90;99.90
20345;DHT22;10330;48.816;9.278;2023-09-08T21:08:30;22.80;99.90
20345;DHT22;10330;48.816;9.278;2023-09-08T21:10:57;22.90;99.90
20345;DHT22;10330;48.816;9.278;2023-09-08T21:13:23;22.80;99.90
20345;DHT22;10330;48.816;9.278;2023-09-08T21:15:53;22.80;99.90
20345;DHT22;10330;48.816;9.278;2023-09-08T21:18:19;22.70;99.90
20345;DHT22;10330;48.816;9.278;2023-09-08T21:20:46;22.70;99.90
20345;DHT22;10330;48.816;9.278;2023-09-08T21:23:13;22.70;99.90
20345;DHT22;10330;48.816;9.278;2023-09-08T21:25:39;22.60;99.90
20345;DHT22;10330;48.816;9.278;2023-09-08T21:28:05;22.50;99.90
20345;DHT22;10330;48.816;9.278;2023-09-08T21:30:32;22.40;99.90
20345;DHT22;10330;48.816;9.278;2023-09-08T21:32:58;22.40;99.90
20345;DHT22;10330;48.816;9.278;2023-09-08T21:35:25;22.40;99.90
20345;DHT22;10330;48.816;9.278;2023-09-08T21:37:53;22.40;99.90
20345;DHT22;10330;48.816;9.278;2023-09-08T21:40:20;22.30;99.90
20345;DHT22;10330;48.816;9.278;2023-09-08T21:42:46;22.30;99.90
20345;DHT22;10330;48.816;9.278;2023-09-08T21:45:12;22.20;99.90
20345;DHT22;10330;48.816;9.278;2023-09-08T21:47:39;22.20;99.90
20345;DHT22;10330;48.816;9.278;2023-09-08T21:50:06;22.20;99.90
20345;DHT22;10330;48.816;9.278;2023-09-08T21:52:32;22.20;99.90
20345;DHT22;10330;48.816;9.278;2023-09-08T21:54:58;22.20;99.90
20345;DHT22;10330;48.816;9.278;2023-09-08T21:57:24;22.10;99.90
20345;DHT22;10330;48.816;9.278;2023-09-08T21:59:51;22.10;99.90
20345;DHT22;10330;48.816;9.278;2023-09-08T22:06:05;21.90;99.90
20345;DHT22;10330;48.816;9.278;2023-09-08T22:08:32;21.90;99.90
20345;DHT22;10330;48.816;9.278;2023-09-08T22:11:03;21.90;99.90
20345;DHT22;10330;48.816;9.278;2023-09-08T22:13:29;21.80;99.90
20345;DHT22;10330;48.816;9.278;2023-09-08T22:16:18;21.80;99.90
20345;DHT22;10330;48.816;9.278;2023-09-08T22:18:44;21.80;99.90
20345;DHT22;10330;48.816;9.278;2023-09-08T22:21:11;21.70;99.90
20345;DHT22;10330;48.816;9.278;2023-09-08T22:23:37;21.70;99.90
20345;DHT22;10330;48.816;9.278;2023-09-08T22:26:16;21.60;99.90